createdAt,value
2016-11-14T00:00:07.070Z,1.04
2016-11-14T00:00:28.798Z,1.00
2016-11-14T00:00:50.525Z,1.01
2016-11-14T00:01:12.250Z,1.01
2016-11-14T00:01:34.003Z,1.05
2016-11-14T00:01:55.731Z,1.05
2016-11-14T00:02:17.469Z,1.02
2016-11-14T00:02:39.197Z,1.04
2016-11-14T00:03:00.918Z,1.01
2016-11-14T00:03:22.641Z,1.04
2016-11-14T00:03:44.363Z,1.06
2016-11-14T00:04:06.085Z,1.10
2016-11-14T00:04:32.591Z,1.12
2016-11-14T00:04:54.316Z,1.12
2016-11-14T00:05:16.046Z,1.18
2016-11-14T00:05:37.800Z,1.28
2016-11-14T00:05:59.518Z,1.34
2016-11-14T00:06:21.243Z,1.30
2016-11-14T00:06:42.987Z,1.23
2016-11-14T00:07:04.710Z,1.22
2016-11-14T00:07:26.447Z,1.19
2016-11-14T00:07:48.181Z,1.24
2016-11-14T00:08:09.925Z,1.32
2016-11-14T00:08:31.660Z,1.41
2016-11-14T00:08:53.398Z,1.38
2016-11-14T00:09:15.182Z,1.33
2016-11-14T00:09:36.898Z,1.25
2016-11-14T00:09:58.618Z,1.15
2016-11-14T00:10:20.362Z,1.04
2016-11-14T00:10:42.112Z,0.98
2016-11-14T00:11:03.825Z,1.00
2016-11-14T00:11:25.546Z,1.12
2016-11-14T00:11:48.269Z,1.08
2016-11-14T00:12:09.995Z,1.02
2016-11-14T00:12:31.733Z,1.01
2016-11-14T00:12:53.455Z,0.96
2016-11-14T00:13:15.194Z,0.92
2016-11-14T00:13:36.925Z,0.88
2016-11-14T00:13:58.645Z,0.88
2016-11-14T00:14:20.364Z,0.87
2016-11-14T00:14:42.097Z,0.88
2016-11-14T00:15:03.836Z,0.88
2016-11-14T00:15:25.573Z,0.90
2016-11-14T00:15:47.485Z,0.91
2016-11-14T00:16:09.220Z,0.91
2016-11-14T00:16:30.958Z,0.92
2016-11-14T00:16:52.680Z,0.93
2016-11-14T00:17:14.425Z,0.91
2016-11-14T00:17:36.144Z,0.87
2016-11-14T00:17:57.895Z,0.82
2016-11-14T00:18:19.614Z,0.88
2016-11-14T00:18:41.339Z,0.88
2016-11-14T00:19:03.073Z,0.86
2016-11-14T00:19:24.793Z,0.86
2016-11-14T00:19:46.521Z,0.89
2016-11-14T00:20:08.257Z,0.86
2016-11-14T00:20:29.992Z,0.86
2016-11-14T00:20:51.717Z,0.84
2016-11-14T00:21:13.439Z,0.83
2016-11-14T00:21:35.165Z,0.86
2016-11-14T00:21:56.904Z,0.86
2016-11-14T00:22:18.623Z,0.86
2016-11-14T00:22:40.352Z,0.85
2016-11-14T00:23:02.090Z,0.87
2016-11-14T00:23:23.860Z,0.84
2016-11-14T00:23:45.584Z,0.79
2016-11-14T00:24:07.332Z,0.75
2016-11-14T00:24:29.054Z,0.73
2016-11-14T00:24:50.776Z,0.72
2016-11-14T00:25:12.490Z,0.71
2016-11-14T00:25:34.227Z,0.72
2016-11-14T00:25:55.966Z,0.73
2016-11-14T00:26:17.712Z,0.68
2016-11-14T00:26:39.435Z,0.72
2016-11-14T00:27:01.169Z,0.74
2016-11-14T00:27:22.887Z,0.80
2016-11-14T00:27:44.605Z,0.84
2016-11-14T00:28:06.322Z,0.86
2016-11-14T00:28:28.042Z,0.86
2016-11-14T00:28:49.761Z,0.86
2016-11-14T00:29:11.488Z,0.87
2016-11-14T00:29:33.210Z,0.83
2016-11-14T00:29:54.949Z,0.82
2016-11-14T00:30:16.678Z,0.82
2016-11-14T00:30:38.397Z,0.78
2016-11-14T00:31:00.162Z,0.74
2016-11-14T00:31:21.885Z,0.70
2016-11-14T00:31:43.613Z,0.72
2016-11-14T00:32:05.326Z,0.74
2016-11-14T00:32:27.044Z,0.76
2016-11-14T00:32:48.776Z,0.73
2016-11-14T00:33:10.503Z,0.72
2016-11-14T00:33:32.265Z,0.67
2016-11-14T00:33:53.987Z,0.66
2016-11-14T00:34:15.709Z,0.66
2016-11-14T00:34:37.435Z,0.68
2016-11-14T00:34:59.170Z,0.66
2016-11-14T00:35:20.894Z,0.67
2016-11-14T00:35:42.670Z,0.69
2016-11-14T00:36:04.392Z,0.69
2016-11-14T00:36:26.121Z,0.72
2016-11-14T00:36:47.862Z,0.68
2016-11-14T00:37:09.584Z,0.70
2016-11-14T00:37:31.306Z,0.66
2016-11-14T00:37:53.034Z,0.62
2016-11-14T00:38:14.767Z,0.67
2016-11-14T00:38:36.485Z,0.80
2016-11-14T00:38:58.220Z,0.76
2016-11-14T00:39:19.944Z,0.68
2016-11-14T00:39:41.670Z,0.68
2016-11-14T00:40:03.403Z,0.69
2016-11-14T00:40:25.150Z,0.68
2016-11-14T00:40:46.874Z,0.69
2016-11-14T00:41:08.599Z,0.70
2016-11-14T00:41:30.332Z,0.71
2016-11-14T00:41:52.072Z,0.81
2016-11-14T00:42:13.813Z,0.86
2016-11-14T00:42:35.560Z,0.83
2016-11-14T00:42:57.279Z,0.82
2016-11-14T00:43:19.004Z,0.80
2016-11-14T00:43:40.742Z,0.82
2016-11-14T00:44:02.446Z,0.82
2016-11-14T00:44:24.171Z,0.83
2016-11-14T00:44:45.908Z,0.85
2016-11-14T00:45:07.849Z,0.78
2016-11-14T00:45:29.561Z,0.77
2016-11-14T00:45:51.310Z,0.79
2016-11-14T00:46:13.029Z,0.91
2016-11-14T00:46:34.753Z,0.97
2016-11-14T00:46:57.472Z,0.96
2016-11-14T00:47:19.197Z,0.98
2016-11-14T00:47:40.928Z,0.96
2016-11-14T00:48:02.652Z,0.96
2016-11-14T00:48:24.375Z,0.94
2016-11-14T00:48:46.102Z,0.89
2016-11-14T00:49:07.814Z,0.80
2016-11-14T00:49:29.562Z,0.86
2016-11-14T00:49:51.292Z,0.93
2016-11-14T00:50:13.013Z,0.92
2016-11-14T00:50:34.733Z,1.00
2016-11-14T00:50:56.459Z,1.06
2016-11-14T00:51:18.197Z,1.04
2016-11-14T00:51:39.919Z,0.97
2016-11-14T00:52:01.640Z,1.01
2016-11-14T00:52:23.370Z,1.11
2016-11-14T00:52:45.097Z,1.20
2016-11-14T00:53:06.842Z,1.25
2016-11-14T00:53:28.578Z,1.25
2016-11-14T00:53:50.297Z,1.15
2016-11-14T00:54:12.047Z,1.05
2016-11-14T00:54:33.770Z,0.94
2016-11-14T00:54:55.526Z,0.83
2016-11-14T00:55:17.250Z,0.77
2016-11-14T00:55:38.974Z,0.73
2016-11-14T00:56:00.695Z,0.71
2016-11-14T00:56:22.430Z,0.67
2016-11-14T00:56:44.161Z,0.66
2016-11-14T00:57:05.890Z,0.64
2016-11-14T00:57:27.616Z,0.64
2016-11-14T00:58:15.836Z,0.75
2016-11-14T00:58:37.553Z,0.72
2016-11-14T00:58:59.281Z,0.70
2016-11-14T00:59:21.022Z,0.69
2016-11-14T00:59:42.753Z,0.64
2016-11-14T01:00:04.489Z,0.59
2016-11-14T01:00:26.227Z,0.57
2016-11-14T01:00:47.959Z,0.57
2016-11-14T01:01:09.687Z,0.56
2016-11-14T01:01:31.419Z,0.59
2016-11-14T01:01:53.159Z,0.58
2016-11-14T01:02:14.895Z,0.55
2016-11-14T01:02:36.624Z,0.57
2016-11-14T01:02:58.354Z,0.58
2016-11-14T01:03:20.076Z,0.56
2016-11-14T01:03:41.797Z,0.54
2016-11-14T01:04:03.541Z,0.53
2016-11-14T01:04:25.272Z,0.63
2016-11-14T01:04:47.030Z,0.60
2016-11-14T01:05:08.815Z,0.57
2016-11-14T01:05:30.569Z,0.56
2016-11-14T01:05:52.309Z,0.55
2016-11-14T01:06:14.028Z,0.52
2016-11-14T01:06:35.764Z,0.53
2016-11-14T01:06:57.495Z,0.53
2016-11-14T01:07:19.231Z,0.55
2016-11-14T01:07:40.956Z,0.57
2016-11-14T01:08:02.691Z,0.62
2016-11-14T01:08:24.418Z,0.68
2016-11-14T01:08:46.143Z,0.79
2016-11-14T01:09:08.884Z,0.76
2016-11-14T01:09:35.387Z,0.69
2016-11-14T01:10:03.894Z,0.72
2016-11-14T01:10:25.633Z,0.79
2016-11-14T01:10:47.361Z,0.77
2016-11-14T01:11:09.094Z,0.73
2016-11-14T01:11:35.585Z,0.69
2016-11-14T01:11:57.326Z,0.75
2016-11-14T01:12:19.050Z,0.76
2016-11-14T01:12:40.779Z,0.69
2016-11-14T01:13:02.518Z,0.64
2016-11-14T01:13:24.234Z,0.61
2016-11-14T01:13:45.963Z,0.62
2016-11-14T01:14:07.684Z,0.72
2016-11-14T01:14:29.419Z,0.74
2016-11-14T01:14:51.161Z,0.68
2016-11-14T01:15:12.963Z,0.61
2016-11-14T01:15:34.691Z,0.61
2016-11-14T01:15:56.647Z,0.57
2016-11-14T01:16:18.374Z,0.55
2016-11-14T01:16:40.097Z,0.52
2016-11-14T01:17:01.815Z,0.54
2016-11-14T01:17:24.545Z,0.59
2016-11-14T01:17:46.274Z,0.62
2016-11-14T01:18:07.997Z,0.60
2016-11-14T01:18:29.732Z,0.61
2016-11-14T01:18:51.475Z,0.65
2016-11-14T01:19:13.348Z,0.71
2016-11-14T01:19:35.088Z,0.70
2016-11-14T01:19:56.830Z,0.77
2016-11-14T01:20:18.569Z,0.84
2016-11-14T01:20:40.288Z,0.97
2016-11-14T01:21:02.056Z,1.05
2016-11-14T01:21:23.799Z,1.12
2016-11-14T01:21:45.525Z,1.07
2016-11-14T01:22:07.266Z,0.98
2016-11-14T01:22:28.994Z,0.92
2016-11-14T01:22:50.737Z,0.84
2016-11-14T01:23:12.463Z,0.91
2016-11-14T01:23:34.182Z,0.93
2016-11-14T01:23:55.932Z,0.87
2016-11-14T01:24:17.659Z,0.82
2016-11-14T01:24:39.375Z,0.76
2016-11-14T01:25:01.096Z,0.71
2016-11-14T01:25:22.849Z,0.70
2016-11-14T01:25:44.571Z,0.67
2016-11-14T01:26:06.326Z,0.66
2016-11-14T01:26:28.065Z,0.61
2016-11-14T01:26:49.796Z,0.58
2016-11-14T01:27:11.528Z,0.54
2016-11-14T01:27:34.262Z,0.52
2016-11-14T01:27:55.996Z,0.51
2016-11-14T01:28:17.749Z,0.52
2016-11-14T01:28:39.485Z,0.52
2016-11-14T01:29:01.230Z,0.49
2016-11-14T01:29:22.959Z,0.49
2016-11-14T01:29:44.696Z,0.47
2016-11-14T01:30:06.420Z,0.46
2016-11-14T01:30:28.147Z,0.46
2016-11-14T01:30:49.875Z,0.48
2016-11-14T01:31:11.601Z,0.52
2016-11-14T01:31:33.332Z,0.52
2016-11-14T01:31:55.068Z,0.56
2016-11-14T01:32:16.810Z,0.66
2016-11-14T01:32:38.536Z,0.65
2016-11-14T01:33:00.263Z,0.59
2016-11-14T01:33:22.195Z,0.55
2016-11-14T01:33:43.929Z,0.58
2016-11-14T01:34:05.654Z,0.54
2016-11-14T01:34:27.376Z,0.54
2016-11-14T01:34:49.102Z,0.51
2016-11-14T01:35:10.843Z,0.47
2016-11-14T01:35:32.571Z,0.50
2016-11-14T01:35:54.302Z,0.50
2016-11-14T01:36:16.023Z,0.49
2016-11-14T01:36:37.755Z,0.48
2016-11-14T01:37:00.500Z,0.51
2016-11-14T01:37:22.246Z,0.56
2016-11-14T01:37:43.976Z,0.53
2016-11-14T01:38:05.713Z,0.45
2016-11-14T01:38:27.442Z,0.47
2016-11-14T01:38:49.180Z,0.48
2016-11-14T01:39:10.960Z,0.43
2016-11-14T01:39:32.688Z,0.44
2016-11-14T01:39:54.404Z,0.50
2016-11-14T01:40:16.129Z,0.51
2016-11-14T01:40:37.858Z,0.51
2016-11-14T01:40:59.591Z,0.62
2016-11-14T01:41:21.313Z,0.58
2016-11-14T01:41:43.065Z,0.60
2016-11-14T01:42:04.798Z,0.62
2016-11-14T01:42:26.519Z,0.61
2016-11-14T01:42:48.265Z,0.56
2016-11-14T01:43:09.985Z,0.50
2016-11-14T01:43:31.714Z,0.51
2016-11-14T01:43:58.218Z,0.52
2016-11-14T01:44:19.951Z,0.48
2016-11-14T01:44:41.692Z,0.44
2016-11-14T01:45:03.419Z,0.41
2016-11-14T01:45:25.132Z,0.42
2016-11-14T01:45:46.866Z,0.42
2016-11-14T01:46:08.595Z,0.55
2016-11-14T01:46:30.327Z,0.60
2016-11-14T01:46:52.044Z,0.57
2016-11-14T01:47:13.785Z,0.53
2016-11-14T01:47:35.509Z,0.50
2016-11-14T01:47:57.236Z,0.49
2016-11-14T01:48:18.961Z,0.46
2016-11-14T01:48:40.692Z,0.49
2016-11-14T01:49:02.423Z,0.50
2016-11-14T01:49:24.143Z,0.48
2016-11-14T01:49:45.863Z,0.48
2016-11-14T01:50:07.587Z,0.45
2016-11-14T01:50:29.305Z,0.41
2016-11-14T01:50:51.044Z,0.43
2016-11-14T01:51:12.758Z,0.45
2016-11-14T01:51:34.487Z,0.51
2016-11-14T01:51:56.197Z,0.56
2016-11-14T01:52:17.938Z,0.59
2016-11-14T01:52:39.664Z,0.56
2016-11-14T01:53:01.395Z,0.54
2016-11-14T01:53:23.120Z,0.50
2016-11-14T01:53:44.839Z,0.48
2016-11-14T01:54:06.555Z,0.44
2016-11-14T01:54:28.319Z,0.43
2016-11-14T01:54:50.034Z,0.44
2016-11-14T01:55:11.751Z,0.43
2016-11-14T01:55:33.476Z,0.40
2016-11-14T01:55:55.207Z,0.40
2016-11-14T01:56:16.940Z,0.39
2016-11-14T01:56:38.672Z,0.37
2016-11-14T01:57:00.425Z,0.41
2016-11-14T01:57:22.161Z,0.34
2016-11-14T01:57:43.893Z,0.31
2016-11-14T01:58:05.614Z,0.26
2016-11-14T01:58:27.341Z,0.31
2016-11-14T01:58:49.057Z,0.35
2016-11-14T01:59:10.837Z,0.35
2016-11-14T01:59:32.576Z,0.35
2016-11-14T02:00:20.798Z,0.31
2016-11-14T02:00:42.519Z,0.31
2016-11-14T02:01:04.241Z,0.27
2016-11-14T02:01:25.981Z,0.26
2016-11-14T02:01:47.707Z,0.27
2016-11-14T02:02:09.430Z,0.26
2016-11-14T02:02:31.155Z,0.28
2016-11-14T02:02:52.875Z,0.44
2016-11-14T02:03:14.599Z,0.50
2016-11-14T02:03:36.327Z,0.47
2016-11-14T02:03:58.048Z,0.51
2016-11-14T02:04:19.772Z,0.59
2016-11-14T02:04:41.495Z,0.54
2016-11-14T02:05:03.211Z,0.48
2016-11-14T02:05:24.940Z,0.42
2016-11-14T02:05:46.667Z,0.35
2016-11-14T02:06:08.404Z,0.32
2016-11-14T02:06:30.123Z,0.35
2016-11-14T02:06:51.871Z,0.49
2016-11-14T02:07:13.596Z,0.60
2016-11-14T02:07:35.307Z,0.61
2016-11-14T02:07:57.036Z,0.56
2016-11-14T02:08:18.765Z,0.52
2016-11-14T02:08:40.488Z,0.47
2016-11-14T02:09:02.217Z,0.39
2016-11-14T02:09:26.609Z,0.36
2016-11-14T02:09:48.325Z,0.38
2016-11-14T02:10:10.048Z,0.33
2016-11-14T02:10:31.766Z,0.23
2016-11-14T02:10:53.487Z,0.17
2016-11-14T02:11:15.214Z,0.15
2016-11-14T02:11:36.943Z,0.16
2016-11-14T02:11:58.663Z,0.17
2016-11-14T02:12:20.392Z,0.20
2016-11-14T02:12:42.120Z,0.24
2016-11-14T02:13:03.850Z,0.23
2016-11-14T02:13:25.577Z,0.26
2016-11-14T02:13:47.309Z,0.27
2016-11-14T02:14:35.522Z,0.41
2016-11-14T02:14:57.268Z,0.44
2016-11-14T02:15:18.999Z,0.41
2016-11-14T02:15:40.761Z,0.39
2016-11-14T02:16:02.481Z,0.32
2016-11-14T02:16:26.916Z,0.26
2016-11-14T02:16:48.636Z,0.20
2016-11-14T02:17:10.370Z,0.15
2016-11-14T02:17:32.096Z,0.14
2016-11-14T02:17:53.965Z,0.17
2016-11-14T02:18:15.690Z,0.16
2016-11-14T02:18:40.349Z,0.16
2016-11-14T02:19:02.075Z,0.17
2016-11-14T02:19:23.786Z,0.15
2016-11-14T02:19:45.528Z,0.17
2016-11-14T02:20:07.241Z,0.19
2016-11-14T02:20:28.962Z,0.19
2016-11-14T02:20:50.719Z,0.27
2016-11-14T02:21:12.439Z,0.26
2016-11-14T02:21:34.168Z,0.27
2016-11-14T02:21:55.901Z,0.27
2016-11-14T02:22:17.618Z,0.36
2016-11-14T02:22:39.350Z,0.38
2016-11-14T02:23:01.072Z,0.37
2016-11-14T02:23:22.803Z,0.28
2016-11-14T02:23:44.523Z,0.28
2016-11-14T02:24:06.245Z,0.39
2016-11-14T02:24:27.989Z,0.49
2016-11-14T02:24:49.714Z,0.55
2016-11-14T02:25:11.455Z,0.64
2016-11-14T02:25:33.173Z,0.64
2016-11-14T02:25:55.108Z,0.58
2016-11-14T02:26:19.720Z,0.45
2016-11-14T02:26:41.443Z,0.38
2016-11-14T02:27:03.161Z,0.34
2016-11-14T02:27:24.996Z,0.27
2016-11-14T02:27:46.777Z,0.30
2016-11-14T02:28:08.502Z,0.38
2016-11-14T02:28:30.222Z,0.38
2016-11-14T02:28:51.953Z,0.47
2016-11-14T02:29:13.677Z,0.58
2016-11-14T02:29:35.398Z,0.59
2016-11-14T02:29:57.137Z,0.48
2016-11-14T02:30:18.859Z,0.41
2016-11-14T02:30:40.588Z,0.36
2016-11-14T02:31:02.441Z,0.38
2016-11-14T02:31:24.163Z,0.47
2016-11-14T02:31:45.879Z,0.50
2016-11-14T02:32:07.676Z,0.45
2016-11-14T02:32:29.395Z,0.42
2016-11-14T02:32:51.151Z,0.37
2016-11-14T02:33:12.881Z,0.31
2016-11-14T02:33:34.601Z,0.26
2016-11-14T02:33:56.340Z,0.32
2016-11-14T02:34:18.070Z,0.36
2016-11-14T02:34:39.790Z,0.34
2016-11-14T02:35:01.506Z,0.42
2016-11-14T02:35:23.232Z,0.46
2016-11-14T02:35:54.366Z,0.39
2016-11-14T02:36:19.107Z,0.33
2016-11-14T02:36:40.829Z,0.31
2016-11-14T02:37:02.552Z,0.28
2016-11-14T02:37:24.276Z,0.26
2016-11-14T02:37:46.016Z,0.23
2016-11-14T02:38:07.740Z,0.21
2016-11-14T02:38:29.469Z,0.24
2016-11-14T02:38:51.195Z,0.23
2016-11-14T02:39:12.924Z,0.14
2016-11-14T02:39:34.654Z,0.08
2016-11-14T02:39:56.385Z,0.11
2016-11-14T02:40:18.113Z,0.06
2016-11-14T02:40:39.853Z,0.03
2016-11-14T02:41:01.583Z,0.06
2016-11-14T02:41:23.301Z,0.04
2016-11-14T02:41:45.028Z,0.02
2016-11-14T02:42:06.784Z,-0.03
2016-11-14T02:42:28.521Z,-0.04
2016-11-14T02:42:50.250Z,-0.03
2016-11-14T02:43:11.988Z,0.01
2016-11-14T02:43:33.698Z,0.10
2016-11-14T02:43:55.418Z,0.15
2016-11-14T02:44:17.140Z,0.24
2016-11-14T02:44:38.865Z,0.23
2016-11-14T02:45:00.592Z,0.18
2016-11-14T02:45:22.333Z,0.13
2016-11-14T02:45:44.043Z,0.08
2016-11-14T02:46:05.773Z,0.03
2016-11-14T02:46:27.516Z,0.01
2016-11-14T02:46:49.254Z,-0.01
2016-11-14T02:47:11.986Z,0.02
2016-11-14T02:47:33.705Z,0.10
2016-11-14T02:47:55.435Z,0.25
2016-11-14T02:48:17.151Z,0.24
2016-11-14T02:48:38.884Z,0.17
2016-11-14T02:49:00.606Z,0.14
2016-11-14T02:49:22.334Z,0.11
2016-11-14T02:49:44.165Z,0.08
2016-11-14T02:50:05.904Z,0.09
2016-11-14T02:50:27.642Z,0.20
2016-11-14T02:50:49.366Z,0.31
2016-11-14T02:51:15.873Z,0.36
2016-11-14T02:51:37.644Z,0.43
2016-11-14T02:51:59.362Z,0.50
2016-11-14T02:52:21.090Z,0.47
2016-11-14T02:52:42.809Z,0.39
2016-11-14T02:53:04.561Z,0.24
2016-11-14T02:53:26.291Z,0.11
2016-11-14T02:53:48.022Z,0.07
2016-11-14T02:54:09.751Z,0.11
2016-11-14T02:54:31.468Z,0.23
2016-11-14T02:54:53.196Z,0.30
2016-11-14T02:55:14.924Z,0.27
2016-11-14T02:55:36.662Z,0.23
2016-11-14T02:55:58.379Z,0.19
2016-11-14T02:56:20.105Z,0.20
2016-11-14T02:56:41.832Z,0.16
2016-11-14T02:57:03.545Z,0.12
2016-11-14T02:57:25.272Z,0.10
2016-11-14T02:57:47.004Z,0.09
2016-11-14T02:58:08.717Z,0.03
2016-11-14T02:58:30.435Z,-0.03
2016-11-14T02:58:52.167Z,-0.05
2016-11-14T02:59:13.898Z,-0.07
2016-11-14T02:59:35.619Z,-0.09
2016-11-14T02:59:57.351Z,-0.06
2016-11-14T03:00:20.115Z,-0.08
2016-11-14T03:00:46.600Z,-0.06
2016-11-14T03:01:08.319Z,-0.06
2016-11-14T03:01:30.055Z,-0.08
2016-11-14T03:01:51.765Z,-0.12
2016-11-14T03:02:13.499Z,-0.11
2016-11-14T03:02:35.213Z,-0.11
2016-11-14T03:02:56.955Z,-0.12
2016-11-14T03:03:18.774Z,-0.11
2016-11-14T03:03:40.538Z,-0.10
2016-11-14T03:04:02.252Z,-0.11
2016-11-14T03:04:23.980Z,-0.13
2016-11-14T03:04:45.713Z,-0.12
2016-11-14T03:05:07.468Z,-0.10
2016-11-14T03:05:29.200Z,-0.06
2016-11-14T03:05:50.962Z,0.00
2016-11-14T03:06:12.679Z,0.08
2016-11-14T03:06:34.427Z,0.04
2016-11-14T03:06:56.146Z,0.14
2016-11-14T03:07:17.868Z,0.09
2016-11-14T03:07:39.598Z,0.11
2016-11-14T03:08:01.313Z,0.20
2016-11-14T03:08:23.034Z,0.13
2016-11-14T03:08:44.750Z,0.14
2016-11-14T03:09:06.479Z,0.09
2016-11-14T03:09:28.207Z,0.03
2016-11-14T03:09:49.927Z,0.03
2016-11-14T03:10:11.666Z,0.03
2016-11-14T03:10:33.375Z,0.06
2016-11-14T03:10:55.233Z,0.13
2016-11-14T03:11:16.946Z,0.06
2016-11-14T03:11:38.663Z,-0.07
2016-11-14T03:12:00.387Z,-0.18
2016-11-14T03:12:22.104Z,-0.24
2016-11-14T03:12:43.834Z,-0.24
2016-11-14T03:13:05.552Z,-0.21
2016-11-14T03:13:27.271Z,-0.11
2016-11-14T03:13:48.996Z,-0.15
2016-11-14T03:14:10.705Z,-0.19
2016-11-14T03:14:32.432Z,-0.26
2016-11-14T03:14:54.150Z,-0.27
2016-11-14T03:15:15.884Z,-0.25
2016-11-14T03:15:37.620Z,-0.21
2016-11-14T03:15:59.339Z,-0.24
2016-11-14T03:16:21.067Z,-0.21
2016-11-14T03:16:42.797Z,-0.33
2016-11-14T03:17:04.545Z,-0.40
2016-11-14T03:17:26.265Z,-0.40
2016-11-14T03:17:48.000Z,-0.40
2016-11-14T03:18:09.726Z,-0.34
2016-11-14T03:18:31.461Z,-0.33
2016-11-14T03:18:53.196Z,-0.32
2016-11-14T03:19:14.922Z,-0.32
2016-11-14T03:19:36.642Z,-0.30
2016-11-14T03:19:58.360Z,-0.30
2016-11-14T03:20:20.080Z,-0.31
2016-11-14T03:20:41.847Z,-0.36
2016-11-14T03:21:03.550Z,-0.32
2016-11-14T03:21:25.284Z,-0.34
2016-11-14T03:21:47.012Z,-0.22
2016-11-14T03:22:08.742Z,-0.07
2016-11-14T03:22:30.464Z,-0.02
2016-11-14T03:22:52.251Z,-0.08
2016-11-14T03:23:14.996Z,-0.15
2016-11-14T03:23:36.714Z,-0.20
2016-11-14T03:23:58.434Z,-0.25
2016-11-14T03:24:20.172Z,-0.22
2016-11-14T03:24:41.890Z,-0.22
2016-11-14T03:25:03.623Z,-0.21
2016-11-14T03:25:25.350Z,-0.20
2016-11-14T03:25:47.068Z,-0.16
2016-11-14T03:26:08.792Z,-0.11
2016-11-14T03:26:30.517Z,0.01
2016-11-14T03:26:52.250Z,0.03
2016-11-14T03:27:13.970Z,-0.02
2016-11-14T03:27:35.690Z,0.09
2016-11-14T03:27:57.410Z,0.10
2016-11-14T03:28:19.128Z,0.07
2016-11-14T03:28:40.848Z,0.19
2016-11-14T03:29:02.582Z,0.28
2016-11-14T03:29:24.292Z,0.22
2016-11-14T03:29:46.028Z,0.14
2016-11-14T03:30:07.757Z,0.09
2016-11-14T03:30:29.485Z,0.12
2016-11-14T03:30:51.202Z,0.15
2016-11-14T03:31:12.972Z,0.25
2016-11-14T03:31:34.690Z,0.25
2016-11-14T03:31:56.420Z,0.14
2016-11-14T03:32:18.145Z,0.02
2016-11-14T03:32:39.869Z,-0.08
2016-11-14T03:33:01.587Z,0.01
2016-11-14T03:33:23.307Z,0.03
2016-11-14T03:33:45.042Z,-0.07
2016-11-14T03:34:11.531Z,0.00
2016-11-14T03:34:33.259Z,0.12
2016-11-14T03:34:54.978Z,0.06
2016-11-14T03:35:16.701Z,0.15
2016-11-14T03:35:38.423Z,0.18
2016-11-14T03:36:00.144Z,0.10
2016-11-14T03:36:21.861Z,-0.04
2016-11-14T03:36:43.677Z,-0.10
2016-11-14T03:37:07.965Z,-0.04
2016-11-14T03:37:29.695Z,0.11
2016-11-14T03:37:51.475Z,0.15
2016-11-14T03:38:13.193Z,0.22
2016-11-14T03:38:34.914Z,0.15
2016-11-14T03:38:56.640Z,0.05
2016-11-14T03:39:18.366Z,-0.02
2016-11-14T03:39:40.093Z,-0.06
2016-11-14T03:40:01.821Z,-0.13
2016-11-14T03:40:23.535Z,-0.15
2016-11-14T03:40:45.260Z,-0.21
2016-11-14T03:41:06.980Z,-0.26
2016-11-14T03:41:28.797Z,-0.24
2016-11-14T03:41:50.517Z,-0.25
2016-11-14T03:42:12.239Z,-0.26
2016-11-14T03:42:33.968Z,-0.27
2016-11-14T03:42:55.692Z,-0.29
2016-11-14T03:43:17.410Z,-0.19
2016-11-14T03:43:39.161Z,-0.14
2016-11-14T03:44:00.868Z,-0.17
2016-11-14T03:44:25.576Z,-0.16
2016-11-14T03:44:47.296Z,-0.12
2016-11-14T03:45:09.014Z,-0.17
2016-11-14T03:45:30.744Z,-0.22
2016-11-14T03:45:52.500Z,-0.24
2016-11-14T03:46:14.231Z,-0.25
2016-11-14T03:46:35.960Z,-0.25
2016-11-14T03:46:57.684Z,-0.26
2016-11-14T03:47:19.401Z,-0.30
2016-11-14T03:47:41.120Z,-0.32
2016-11-14T03:48:02.883Z,-0.33
2016-11-14T03:48:24.612Z,-0.32
2016-11-14T03:48:46.340Z,-0.26
2016-11-14T03:49:08.061Z,-0.23
2016-11-14T03:49:29.818Z,-0.27
2016-11-14T03:49:51.557Z,-0.31
2016-11-14T03:50:13.297Z,-0.27
2016-11-14T03:50:35.016Z,-0.22
2016-11-14T03:50:56.750Z,-0.24
2016-11-14T03:51:18.467Z,-0.31
2016-11-14T03:51:40.201Z,-0.33
2016-11-14T03:52:01.926Z,-0.33
2016-11-14T03:52:23.676Z,-0.35
2016-11-14T03:52:45.404Z,-0.35
2016-11-14T03:53:07.131Z,-0.33
2016-11-14T03:53:28.856Z,-0.36
2016-11-14T03:53:50.584Z,-0.37
2016-11-14T03:54:12.306Z,-0.37
2016-11-14T03:54:34.031Z,-0.35
2016-11-14T03:54:55.776Z,-0.34
2016-11-14T03:55:17.499Z,-0.18
2016-11-14T03:55:39.225Z,-0.20
2016-11-14T03:56:00.953Z,-0.20
2016-11-14T03:56:22.715Z,-0.22
2016-11-14T03:56:44.439Z,-0.17
2016-11-14T03:57:06.161Z,-0.19
2016-11-14T03:57:27.883Z,-0.26
2016-11-14T03:57:49.604Z,-0.33
2016-11-14T03:58:11.328Z,-0.38
2016-11-14T03:58:33.060Z,-0.44
2016-11-14T03:58:54.780Z,-0.51
2016-11-14T03:59:16.520Z,-0.52
2016-11-14T03:59:38.244Z,-0.55
2016-11-14T03:59:59.975Z,-0.56
2016-11-14T04:00:21.697Z,-0.55
2016-11-14T04:00:43.420Z,-0.55
2016-11-14T04:01:05.141Z,-0.59
2016-11-14T04:01:26.855Z,-0.65
2016-11-14T04:01:48.618Z,-0.70
2016-11-14T04:02:10.339Z,-0.69
2016-11-14T04:02:32.079Z,-0.67
2016-11-14T04:02:53.797Z,-0.64
2016-11-14T04:03:20.307Z,-0.53
2016-11-14T04:03:42.036Z,-0.50
2016-11-14T04:04:03.756Z,-0.49
2016-11-14T04:04:25.497Z,-0.47
2016-11-14T04:04:47.215Z,-0.38
2016-11-14T04:05:08.940Z,-0.34
2016-11-14T04:05:35.444Z,-0.37
2016-11-14T04:05:57.177Z,-0.33
2016-11-14T04:06:18.977Z,-0.41
2016-11-14T04:06:40.701Z,-0.48
2016-11-14T04:07:02.411Z,-0.53
2016-11-14T04:07:24.135Z,-0.52
2016-11-14T04:07:45.860Z,-0.49
2016-11-14T04:08:07.579Z,-0.41
2016-11-14T04:08:29.321Z,-0.36
2016-11-14T04:08:51.056Z,-0.38
2016-11-14T04:09:12.789Z,-0.44
2016-11-14T04:09:34.509Z,-0.47
2016-11-14T04:09:56.228Z,-0.49
2016-11-14T04:10:17.950Z,-0.47
2016-11-14T04:10:39.697Z,-0.36
2016-11-14T04:11:01.405Z,-0.22
2016-11-14T04:11:23.158Z,-0.15
2016-11-14T04:11:44.889Z,-0.09
2016-11-14T04:12:06.629Z,0.01
2016-11-14T04:12:28.353Z,0.05
2016-11-14T04:12:50.079Z,0.04
2016-11-14T04:13:11.791Z,0.00
2016-11-14T04:13:33.521Z,-0.15
2016-11-14T04:13:55.235Z,-0.20
2016-11-14T04:14:16.952Z,-0.21
2016-11-14T04:14:38.679Z,-0.15
2016-11-14T04:15:00.398Z,-0.16
2016-11-14T04:15:22.123Z,-0.21
2016-11-14T04:15:43.835Z,-0.27
2016-11-14T04:16:05.563Z,-0.26
2016-11-14T04:16:27.305Z,-0.31
2016-11-14T04:16:49.016Z,-0.33
2016-11-14T04:17:10.749Z,-0.25
2016-11-14T04:17:32.479Z,-0.32
2016-11-14T04:17:54.210Z,-0.36
2016-11-14T04:18:15.934Z,-0.41
2016-11-14T04:18:37.786Z,-0.43
2016-11-14T04:18:59.527Z,-0.47
2016-11-14T04:19:21.245Z,-0.50
2016-11-14T04:19:42.975Z,-0.44
2016-11-14T04:20:04.699Z,-0.40
2016-11-14T04:20:26.427Z,-0.46
2016-11-14T04:20:48.144Z,-0.53
2016-11-14T04:21:09.864Z,-0.56
2016-11-14T04:21:31.595Z,-0.62
2016-11-14T04:21:53.316Z,-0.68
2016-11-14T04:22:15.041Z,-0.70
2016-11-14T04:22:36.760Z,-0.67
2016-11-14T04:22:58.483Z,-0.65
2016-11-14T04:23:20.210Z,-0.46
2016-11-14T04:23:41.929Z,-0.31
2016-11-14T04:24:03.652Z,-0.19
2016-11-14T04:24:25.372Z,-0.24
2016-11-14T04:24:47.096Z,-0.34
2016-11-14T04:25:08.820Z,-0.36
2016-11-14T04:25:30.535Z,-0.37
2016-11-14T04:25:52.257Z,-0.42
2016-11-14T04:26:14.000Z,-0.45
2016-11-14T04:26:35.737Z,-0.48
2016-11-14T04:26:57.456Z,-0.55
2016-11-14T04:27:19.175Z,-0.58
2016-11-14T04:27:40.905Z,-0.64
2016-11-14T04:28:02.670Z,-0.70
2016-11-14T04:28:24.391Z,-0.74
2016-11-14T04:28:46.112Z,-0.67
2016-11-14T04:29:07.844Z,-0.71
2016-11-14T04:29:29.578Z,-0.70
2016-11-14T04:29:51.295Z,-0.73
2016-11-14T04:30:13.009Z,-0.71
2016-11-14T04:30:34.743Z,-0.68
2016-11-14T04:30:56.468Z,-0.68
2016-11-14T04:31:18.189Z,-0.71
2016-11-14T04:31:39.907Z,-0.71
2016-11-14T04:32:01.633Z,-0.61
2016-11-14T04:32:23.356Z,-0.43
2016-11-14T04:32:45.081Z,-0.36
2016-11-14T04:33:06.799Z,-0.35
2016-11-14T04:33:28.524Z,-0.40
2016-11-14T04:33:50.243Z,-0.33
2016-11-14T04:34:11.973Z,-0.32
2016-11-14T04:34:33.705Z,-0.36
2016-11-14T04:34:55.434Z,-0.34
2016-11-14T04:35:17.164Z,-0.35
2016-11-14T04:35:38.884Z,-0.39
2016-11-14T04:36:00.610Z,-0.49
2016-11-14T04:36:22.363Z,-0.63
2016-11-14T04:36:44.089Z,-0.59
2016-11-14T04:37:05.817Z,-0.53
2016-11-14T04:37:27.548Z,-0.48
2016-11-14T04:37:49.261Z,-0.42
2016-11-14T04:38:10.990Z,-0.42
2016-11-14T04:38:32.721Z,-0.45
2016-11-14T04:38:54.443Z,-0.51
2016-11-14T04:39:16.169Z,-0.50
2016-11-14T04:39:37.894Z,-0.49
2016-11-14T04:39:59.624Z,-0.50
2016-11-14T04:40:21.343Z,-0.49
2016-11-14T04:40:43.065Z,-0.44
2016-11-14T04:41:04.792Z,-0.45
2016-11-14T04:41:26.620Z,-0.46
2016-11-14T04:41:48.353Z,-0.50
2016-11-14T04:42:10.077Z,-0.54
2016-11-14T04:42:31.794Z,-0.52
2016-11-14T04:42:53.531Z,-0.42
2016-11-14T04:43:15.264Z,-0.37
2016-11-14T04:43:36.990Z,-0.40
2016-11-14T04:43:58.720Z,-0.42
2016-11-14T04:44:20.458Z,-0.34
2016-11-14T04:44:42.170Z,-0.39
2016-11-14T04:45:03.897Z,-0.47
2016-11-14T04:45:25.621Z,-0.50
2016-11-14T04:45:47.357Z,-0.47
2016-11-14T04:46:09.168Z,-0.38
2016-11-14T04:46:30.888Z,-0.41
2016-11-14T04:46:52.610Z,-0.41
2016-11-14T04:47:14.329Z,-0.46
2016-11-14T04:47:36.065Z,-0.51
2016-11-14T04:47:57.784Z,-0.51
2016-11-14T04:48:19.503Z,-0.51
2016-11-14T04:48:41.258Z,-0.52